createdAt,value
2018-01-16T00:01:17.758Z,2.30
2018-01-16T00:03:45.298Z,2.03
2018-01-16T00:06:12.803Z,2.00
2018-01-16T00:08:40.342Z,2.07
2018-01-16T00:11:07.898Z,2.33
2018-01-16T00:13:35.411Z,1.97
2018-01-16T00:16:02.950Z,2.07
2018-01-16T00:18:30.451Z,2.07
2018-01-16T00:20:58.757Z,2.13
2018-01-16T00:23:26.272Z,2.17
2018-01-16T00:25:53.815Z,1.93
2018-01-16T00:28:21.367Z,2.43
2018-01-16T00:30:48.875Z,1.60
2018-01-16T00:33:16.415Z,2.07
2018-01-16T00:35:43.949Z,2.17
2018-01-16T00:38:11.485Z,1.80
2018-01-16T00:40:38.991Z,1.80
2018-01-16T00:43:06.527Z,1.27
2018-01-16T00:45:34.059Z,1.60
2018-01-16T00:48:01.564Z,1.70
2018-01-16T00:50:29.107Z,4.30
2018-01-16T00:52:56.618Z,1.30
2018-01-16T00:55:24.159Z,1.40
2018-01-16T00:57:52.467Z,1.60
2018-01-16T01:00:19.977Z,1.50
2018-01-16T01:02:47.524Z,1.60
2018-01-16T01:05:15.059Z,1.60
2018-01-16T01:07:42.653Z,1.60
2018-01-16T01:10:10.213Z,1.50
2018-01-16T01:12:37.717Z,1.27
2018-01-16T01:15:05.255Z,1.40
2018-01-16T01:17:32.759Z,1.60
2018-01-16T01:20:00.301Z,2.07
2018-01-16T01:22:27.808Z,1.87
2018-01-16T01:24:55.366Z,1.60
2018-01-16T01:27:22.882Z,1.60
2018-01-16T01:29:50.438Z,3.07
2018-01-16T01:32:17.984Z,1.70
2018-01-16T01:34:45.511Z,1.80
2018-01-16T01:37:13.063Z,2.23
2018-01-16T01:39:40.635Z,1.67
2018-01-16T01:42:08.387Z,1.27
2018-01-16T01:44:35.918Z,1.40
2018-01-16T01:47:03.816Z,2.37
2018-01-16T01:49:31.359Z,2.20
2018-01-16T01:51:58.869Z,2.80
2018-01-16T01:54:26.400Z,1.70
2018-01-16T01:56:53.912Z,2.20
2018-01-16T01:59:21.460Z,2.23
2018-01-16T02:01:48.978Z,1.97
2018-01-16T02:04:16.571Z,2.57
2018-01-16T02:06:44.117Z,1.20
2018-01-16T02:09:12.397Z,1.43
2018-01-16T02:11:39.941Z,1.60
2018-01-16T02:14:08.221Z,1.93
2018-01-16T02:16:35.743Z,1.60
2018-01-16T02:19:03.280Z,2.90
2018-01-16T02:21:30.796Z,2.43
2018-01-16T02:23:58.746Z,1.60
2018-01-16T02:26:26.291Z,1.90
2018-01-16T02:28:53.798Z,1.80
2018-01-16T02:31:21.318Z,2.03
2018-01-16T02:33:48.857Z,2.33
2018-01-16T02:36:16.383Z,1.37
2018-01-16T02:38:43.920Z,1.40
2018-01-16T02:41:11.475Z,1.20
2018-01-16T02:43:38.982Z,1.00
2018-01-16T02:46:06.825Z,1.10
2018-01-16T02:48:34.337Z,1.17
2018-01-16T02:51:01.894Z,1.13
2018-01-16T02:53:29.425Z,1.00
2018-01-16T02:55:56.956Z,1.20
2018-01-16T02:58:24.463Z,1.03
2018-01-16T03:00:51.991Z,1.10
2018-01-16T03:03:19.496Z,1.10
2018-01-16T03:05:47.032Z,0.90
2018-01-16T03:08:14.548Z,0.97
2018-01-16T03:10:42.083Z,1.20
2018-01-16T03:13:09.597Z,1.10
2018-01-16T03:15:37.147Z,1.00
2018-01-16T03:18:04.642Z,1.00
2018-01-16T03:20:32.173Z,1.10
2018-01-16T03:22:59.716Z,0.90
2018-01-16T03:25:27.291Z,1.10
2018-01-16T03:27:54.799Z,1.30
2018-01-16T03:30:23.167Z,1.20
2018-01-16T03:32:50.691Z,1.03
2018-01-16T03:35:18.236Z,1.10
2018-01-16T03:37:46.154Z,1.20
2018-01-16T03:40:13.727Z,1.27
2018-01-16T03:42:42.024Z,1.27
2018-01-16T03:45:09.578Z,1.10
2018-01-16T03:47:37.103Z,1.60
2018-01-16T03:50:04.641Z,1.43
2018-01-16T03:52:32.180Z,1.40
2018-01-16T03:54:59.713Z,1.17
2018-01-16T03:57:27.244Z,1.13
2018-01-16T03:59:54.778Z,1.10
2018-01-16T04:02:22.279Z,2.53
2018-01-16T04:04:50.580Z,1.00
2018-01-16T04:07:18.103Z,1.10
2018-01-16T04:09:45.665Z,0.90
2018-01-16T04:12:13.220Z,1.40
2018-01-16T04:14:40.766Z,1.00
2018-01-16T04:17:08.288Z,1.20
2018-01-16T04:19:35.827Z,1.37
2018-01-16T04:22:03.364Z,1.03
2018-01-16T04:24:30.907Z,0.90
2018-01-16T04:26:58.408Z,1.07
2018-01-16T04:29:25.925Z,1.17
2018-01-16T04:31:53.693Z,0.83
2018-01-16T04:34:21.233Z,1.10
2018-01-16T04:36:49.034Z,0.90
2018-01-16T04:39:16.600Z,1.00
2018-01-16T04:41:44.872Z,1.30
2018-01-16T04:44:12.463Z,1.10
2018-01-16T04:46:39.989Z,1.20
2018-01-16T04:49:07.578Z,0.90
2018-01-16T04:51:35.102Z,1.07
2018-01-16T04:54:02.684Z,1.17
2018-01-16T04:56:30.240Z,1.00
2018-01-16T04:58:57.739Z,0.83
2018-01-16T05:01:25.280Z,0.97
2018-01-16T05:03:52.797Z,1.07
2018-01-16T05:06:20.327Z,1.00
2018-01-16T05:08:47.871Z,1.00
2018-01-16T05:11:15.502Z,1.03
2018-01-16T05:13:43.043Z,1.83
2018-01-16T05:16:10.547Z,1.00
2018-01-16T05:18:38.076Z,1.10
2018-01-16T05:21:06.423Z,0.90
2018-01-16T05:23:33.964Z,0.97
2018-01-16T05:26:01.507Z,1.00
2018-01-16T05:28:29.018Z,0.77
2018-01-16T05:30:56.542Z,0.97
2018-01-16T05:33:24.112Z,1.00
2018-01-16T05:35:51.720Z,1.37
2018-01-16T05:38:19.241Z,1.30
2018-01-16T05:40:46.748Z,1.10
2018-01-16T05:43:14.296Z,1.00
2018-01-16T05:45:41.803Z,1.07
2018-01-16T05:48:09.350Z,1.00
2018-01-16T05:50:36.893Z,1.30
2018-01-16T05:53:04.404Z,1.00
2018-01-16T05:55:31.946Z,1.00
2018-01-16T05:57:59.479Z,0.97
2018-01-16T06:00:27.033Z,3.50
2018-01-16T06:02:54.593Z,1.07
2018-01-16T06:05:22.126Z,1.10
2018-01-16T06:07:49.721Z,1.10
2018-01-16T06:10:17.244Z,1.20
2018-01-16T06:12:44.783Z,0.97
2018-01-16T06:15:12.292Z,1.50
2018-01-16T06:17:39.832Z,0.93
2018-01-16T06:20:07.399Z,1.00
2018-01-16T06:22:34.910Z,1.10
2018-01-16T06:25:02.454Z,1.10
2018-01-16T06:27:30.000Z,1.17
2018-01-16T06:29:57.503Z,1.30
2018-01-16T06:32:25.020Z,1.10
2018-01-16T06:34:52.561Z,1.20
2018-01-16T06:37:20.068Z,1.40
2018-01-16T06:39:47.622Z,1.80
2018-01-16T06:42:15.136Z,1.67
2018-01-16T06:44:42.664Z,2.10
2018-01-16T06:47:10.172Z,1.40
2018-01-16T06:49:37.709Z,1.73
2018-01-16T06:52:05.220Z,1.90
2018-01-16T06:54:32.772Z,1.13
2018-01-16T06:57:00.283Z,1.10
2018-01-16T06:59:27.799Z,1.03
2018-01-16T07:01:55.385Z,1.10
2018-01-16T07:04:22.922Z,1.17
2018-01-16T07:06:50.512Z,1.13
2018-01-16T07:09:18.154Z,1.00
2018-01-16T07:11:45.687Z,1.00
2018-01-16T07:14:13.227Z,1.20
2018-01-16T07:16:40.783Z,0.97
2018-01-16T07:19:08.291Z,1.00
2018-01-16T07:21:35.797Z,0.97
2018-01-16T07:24:03.343Z,1.33
2018-01-16T07:26:30.869Z,1.00
2018-01-16T07:28:59.376Z,1.00
2018-01-16T07:31:26.896Z,1.10
2018-01-16T07:33:54.408Z,1.10
2018-01-16T07:36:21.979Z,1.13
2018-01-16T07:38:49.485Z,1.27
2018-01-16T07:41:17.036Z,1.60
2018-01-16T07:43:45.334Z,1.40
2018-01-16T07:46:12.913Z,1.37
2018-01-16T07:48:40.537Z,1.30
2018-01-16T07:51:08.081Z,1.00
2018-01-16T07:53:35.618Z,1.03
2018-01-16T07:56:03.192Z,2.93
2018-01-16T07:58:31.606Z,1.20
2018-01-16T08:00:59.194Z,1.23
2018-01-16T08:03:26.736Z,1.30
2018-01-16T08:05:54.262Z,1.37
2018-01-16T08:08:21.875Z,1.40
2018-01-16T08:10:49.395Z,1.40
2018-01-16T08:13:17.670Z,1.40
2018-01-16T08:15:45.986Z,1.17
2018-01-16T08:18:13.749Z,1.10
2018-01-16T08:20:41.277Z,0.97
2018-01-16T08:23:09.594Z,1.10
2018-01-16T08:25:37.152Z,2.83
2018-01-16T08:28:04.665Z,1.23
2018-01-16T08:30:32.205Z,1.30
2018-01-16T08:32:59.826Z,1.70
2018-01-16T08:35:27.384Z,1.60
2018-01-16T08:37:54.950Z,1.33
2018-01-16T08:40:22.492Z,2.57
2018-01-16T08:42:50.176Z,1.10
2018-01-16T08:45:17.763Z,1.13
2018-01-16T08:47:45.363Z,1.10
2018-01-16T08:50:12.936Z,1.23
2018-01-16T08:52:41.210Z,1.07
2018-01-16T08:55:08.800Z,1.63
2018-01-16T08:57:36.367Z,1.10
2018-01-16T09:00:03.936Z,1.27
2018-01-16T09:02:31.506Z,1.03
2018-01-16T09:04:59.138Z,3.03
2018-01-16T09:07:26.784Z,1.50
2018-01-16T09:09:54.347Z,1.10
2018-01-16T09:12:21.856Z,1.30
2018-01-16T09:14:49.415Z,1.23
2018-01-16T09:17:16.991Z,1.23
2018-01-16T09:19:44.562Z,1.47
2018-01-16T09:22:12.843Z,1.70
2018-01-16T09:24:40.386Z,1.07
2018-01-16T09:27:08.687Z,0.97
2018-01-16T09:29:36.478Z,1.33
2018-01-16T09:32:04.008Z,1.50
2018-01-16T09:34:31.524Z,1.30
2018-01-16T09:36:59.063Z,1.30
2018-01-16T09:39:26.645Z,2.07
2018-01-16T09:41:57.203Z,1.00
2018-01-16T09:44:25.797Z,1.17
2018-01-16T09:46:53.352Z,1.27
2018-01-16T09:49:20.988Z,1.30
2018-01-16T09:51:48.544Z,1.87
2018-01-16T09:54:16.042Z,1.30
2018-01-16T09:56:43.566Z,2.17
2018-01-16T09:59:11.159Z,1.40
2018-01-16T10:01:38.676Z,1.27
2018-01-16T10:04:06.259Z,2.83
2018-01-16T10:06:33.775Z,1.30
2018-01-16T10:09:01.332Z,1.20
2018-01-16T10:11:28.866Z,1.63
2018-01-16T10:13:56.403Z,2.07
2018-01-16T10:16:24.787Z,1.50
2018-01-16T10:18:52.323Z,1.50
2018-01-16T10:21:19.862Z,1.57
2018-01-16T10:23:47.440Z,1.37
2018-01-16T10:26:15.150Z,1.37
2018-01-16T10:28:42.832Z,1.20
2018-01-16T10:31:10.409Z,1.40
2018-01-16T10:33:37.966Z,1.30
2018-01-16T10:36:05.495Z,1.27
2018-01-16T10:38:33.060Z,1.43
2018-01-16T10:41:00.573Z,1.67
2018-01-16T10:43:29.242Z,1.43
2018-01-16T10:45:56.843Z,1.60
2018-01-16T10:48:24.625Z,1.80
2018-01-16T10:50:52.211Z,1.80
2018-01-16T10:53:19.759Z,1.53
2018-01-16T10:55:47.326Z,1.40
2018-01-16T10:58:14.864Z,1.50
2018-01-16T11:00:42.387Z,1.37
2018-01-16T11:03:09.952Z,1.40
2018-01-16T11:05:37.608Z,1.73
2018-01-16T11:08:05.164Z,1.30
2018-01-16T11:10:32.716Z,1.30
2018-01-16T11:13:00.221Z,1.33
2018-01-16T11:15:27.775Z,1.70
2018-01-16T11:17:55.301Z,1.20
2018-01-16T11:20:22.839Z,2.27
2018-01-16T11:22:50.453Z,1.40
2018-01-16T11:25:17.962Z,1.93
2018-01-16T11:27:45.543Z,1.10
2018-01-16T11:30:13.857Z,1.60
2018-01-16T11:32:41.479Z,1.30
2018-01-16T11:35:09.045Z,1.50
2018-01-16T11:37:36.595Z,1.43
2018-01-16T11:40:04.928Z,1.80
2018-01-16T11:42:32.453Z,1.23
2018-01-16T11:45:00.798Z,1.63
2018-01-16T11:47:29.102Z,1.23
2018-01-16T11:49:56.634Z,1.30
2018-01-16T11:52:24.976Z,1.47
2018-01-16T11:54:52.487Z,1.67
2018-01-16T11:57:20.848Z,1.30
2018-01-16T11:59:48.465Z,1.43
2018-01-16T12:02:16.053Z,2.63
2018-01-16T12:04:43.597Z,2.27
2018-01-16T12:07:11.116Z,1.43
2018-01-16T12:09:38.772Z,1.60
2018-01-16T12:12:07.056Z,1.20
2018-01-16T12:14:34.612Z,1.33
2018-01-16T12:17:02.943Z,1.40
2018-01-16T12:19:30.578Z,1.73
2018-01-16T12:21:58.703Z,3.50
2018-01-16T12:24:26.334Z,1.40
2018-01-16T12:26:53.857Z,1.23
2018-01-16T12:29:21.411Z,1.30
2018-01-16T12:31:48.960Z,1.43
2018-01-16T12:34:17.684Z,2.00
2018-01-16T12:36:45.223Z,1.60
2018-01-16T12:39:12.769Z,1.80
2018-01-16T12:41:40.332Z,1.40
2018-01-16T12:44:07.869Z,1.60
2018-01-16T12:46:35.407Z,1.27
2018-01-16T12:49:02.979Z,2.20
2018-01-16T12:51:30.601Z,2.80
2018-01-16T12:53:58.116Z,0.87
2018-01-16T12:56:25.669Z,1.20
2018-01-16T12:58:53.233Z,1.53
2018-01-16T13:01:21.529Z,3.70
2018-01-16T13:03:49.898Z,1.47
2018-01-16T13:06:17.454Z,1.50
2018-01-16T13:08:45.012Z,2.00
2018-01-16T13:11:12.588Z,1.43
2018-01-16T13:13:40.136Z,1.57
2018-01-16T13:16:07.687Z,4.57
2018-01-16T13:18:35.203Z,1.77
2018-01-16T13:21:02.946Z,1.47
2018-01-16T13:23:30.469Z,3.53
2018-01-16T13:25:58.751Z,2.60
2018-01-16T13:28:26.295Z,5.80
2018-01-16T13:30:53.956Z,1.87
2018-01-16T13:33:21.520Z,2.13
2018-01-16T13:35:49.030Z,2.20
2018-01-16T13:38:16.552Z,2.07
2018-01-16T13:40:44.851Z,3.33
2018-01-16T13:43:12.448Z,1.77
2018-01-16T13:45:39.984Z,1.50
2018-01-16T13:48:07.523Z,2.90
2018-01-16T13:50:35.226Z,1.53
2018-01-16T13:53:02.788Z,1.40
2018-01-16T13:55:30.410Z,2.20
2018-01-16T13:57:57.974Z,1.90
2018-01-16T14:00:25.627Z,1.57
2018-01-16T14:02:53.211Z,1.57
2018-01-16T14:05:20.764Z,1.63
2018-01-16T14:07:48.585Z,1.93
2018-01-16T14:10:16.170Z,1.67
2018-01-16T14:12:44.445Z,1.93
2018-01-16T14:15:11.996Z,1.70
2018-01-16T14:17:40.310Z,1.90
2018-01-16T14:20:08.059Z,3.17
2018-01-16T14:22:35.588Z,1.40
2018-01-16T14:25:03.953Z,1.73
2018-01-16T14:27:31.469Z,1.53
2018-01-16T14:29:59.122Z,2.23
2018-01-16T14:32:26.771Z,2.20
2018-01-16T14:34:54.351Z,3.67
2018-01-16T14:37:21.861Z,2.03
2018-01-16T14:39:49.447Z,2.13
2018-01-16T14:42:17.018Z,1.87
2018-01-16T14:44:44.549Z,1.97
2018-01-16T14:47:12.902Z,2.47
2018-01-16T14:49:40.435Z,2.23
2018-01-16T14:52:08.031Z,3.50
2018-01-16T14:54:35.628Z,2.13
2018-01-16T14:57:03.970Z,1.70
2018-01-16T14:59:31.493Z,1.87
2018-01-16T15:01:59.018Z,1.60
2018-01-16T15:04:26.556Z,2.50
2018-01-16T15:06:54.144Z,1.60
2018-01-16T15:09:22.424Z,1.70
2018-01-16T15:11:50.157Z,1.40
2018-01-16T15:14:17.713Z,2.57
2018-01-16T15:16:45.271Z,1.60
2018-01-16T15:19:12.853Z,1.50
2018-01-16T15:21:40.361Z,1.07
2018-01-16T15:24:07.937Z,1.03
2018-01-16T15:26:35.450Z,3.60
2018-01-16T15:29:02.998Z,1.70
2018-01-16T15:31:30.505Z,1.33
2018-01-16T15:33:58.051Z,3.07
2018-01-16T15:36:25.593Z,1.20
2018-01-16T15:38:53.099Z,1.30
2018-01-16T15:41:20.615Z,1.10
2018-01-16T15:43:48.208Z,2.30
2018-01-16T15:46:15.723Z,2.10
2018-01-16T15:48:43.284Z,1.63
2018-01-16T15:51:11.090Z,3.67
2018-01-16T15:53:38.642Z,2.83
2018-01-16T15:56:06.192Z,2.07
2018-01-16T15:58:33.716Z,1.77
2018-01-16T16:01:01.246Z,2.07
2018-01-16T16:03:28.907Z,2.00
2018-01-16T16:05:56.467Z,2.40
2018-01-16T16:08:24.057Z,2.87
2018-01-16T16:10:51.602Z,2.30
2018-01-16T16:13:19.121Z,6.23
2018-01-16T16:15:46.679Z,1.40
2018-01-16T16:18:14.249Z,1.70
2018-01-16T16:20:42.654Z,2.13
2018-01-16T16:23:10.228Z,2.43
2018-01-16T16:25:38.573Z,3.33
2018-01-16T16:28:06.131Z,2.63
2018-01-16T16:30:33.661Z,2.00
2018-01-16T16:33:01.211Z,1.80
2018-01-16T16:35:28.796Z,1.60
2018-01-16T16:37:56.300Z,2.43
2018-01-16T16:40:23.827Z,1.93
2018-01-16T16:42:51.411Z,1.80
2018-01-16T16:45:19.836Z,2.47
2018-01-16T16:47:47.408Z,1.70
2018-01-16T16:50:15.073Z,2.83
2018-01-16T16:52:42.669Z,1.83
2018-01-16T16:55:10.295Z,2.17
2018-01-16T16:57:38.214Z,3.20
2018-01-16T17:00:05.759Z,2.40
2018-01-16T17:02:34.048Z,1.70
2018-01-16T17:05:01.563Z,1.80
2018-01-16T17:07:29.107Z,1.83
2018-01-16T17:09:56.625Z,1.30
2018-01-16T17:12:24.629Z,1.97
2018-01-16T17:14:52.247Z,2.37
2018-01-16T17:17:19.759Z,2.90
2018-01-16T17:19:47.313Z,2.37
2018-01-16T17:22:14.885Z,1.83
2018-01-16T17:24:42.698Z,3.53
2018-01-16T17:27:10.256Z,2.03
2018-01-16T17:29:38.580Z,2.70
2018-01-16T17:32:06.166Z,3.00
2018-01-16T17:34:33.716Z,2.17
2018-01-16T17:37:02.030Z,1.87
2018-01-16T17:39:29.604Z,2.00
2018-01-16T17:41:57.170Z,2.13
2018-01-16T17:44:24.682Z,3.63
2018-01-16T17:46:52.294Z,3.00
2018-01-16T17:49:19.813Z,2.23
2018-01-16T17:51:47.369Z,1.97
2018-01-16T17:54:14.914Z,2.50
2018-01-16T17:56:42.461Z,2.60
2018-01-16T17:59:10.010Z,2.63
2018-01-16T18:01:37.528Z,2.20
2018-01-16T18:04:05.146Z,2.53
2018-01-16T18:06:32.683Z,3.10
2018-01-16T18:09:00.233Z,2.00
2018-01-16T18:11:27.741Z,2.87
2018-01-16T18:13:55.341Z,6.13
2018-01-16T18:16:22.889Z,4.63
2018-01-16T18:18:50.481Z,8.30
2018-01-16T18:21:18.051Z,4.73
2018-01-16T18:23:45.551Z,2.57
2018-01-16T18:26:13.154Z,2.60
2018-01-16T18:28:40.667Z,2.43
2018-01-16T18:31:08.208Z,4.20
2018-01-16T18:33:35.721Z,4.10
2018-01-16T18:36:03.280Z,2.53
2018-01-16T18:38:30.791Z,2.07
2018-01-16T18:40:58.305Z,3.13
2018-01-16T18:43:26.315Z,3.87
2018-01-16T18:45:53.886Z,1.70
2018-01-16T18:48:21.417Z,1.40
2018-01-16T18:50:49.002Z,1.93
2018-01-16T18:53:17.348Z,4.63
2018-01-16T18:55:44.851Z,1.60
2018-01-16T18:58:12.394Z,1.87
2018-01-16T19:00:39.963Z,1.33
2018-01-16T19:03:07.584Z,1.70
2018-01-16T19:05:35.087Z,1.43
2018-01-16T19:08:02.739Z,1.43
2018-01-16T19:10:30.258Z,1.87
2018-01-16T19:12:57.825Z,1.87
2018-01-16T19:15:25.363Z,1.70
2018-01-16T19:17:52.950Z,2.97
2018-01-16T19:20:20.488Z,1.63
2018-01-16T19:22:48.047Z,2.50
2018-01-16T19:25:15.560Z,2.77
2018-01-16T19:27:43.100Z,2.30
2018-01-16T19:30:10.692Z,4.47
2018-01-16T19:32:38.264Z,1.90
2018-01-16T19:35:06.635Z,3.47
2018-01-16T19:37:34.158Z,1.77
2018-01-16T19:40:01.703Z,2.60
2018-01-16T19:42:29.215Z,4.03
2018-01-16T19:44:56.793Z,3.90
2018-01-16T19:47:25.059Z,4.57
2018-01-16T19:49:52.619Z,7.17
2018-01-16T19:52:21.301Z,2.30
2018-01-16T19:54:49.662Z,3.60
2018-01-16T19:57:17.158Z,1.80
2018-01-16T19:59:44.695Z,3.53
2018-01-16T20:02:12.245Z,4.87
2018-01-16T20:04:39.766Z,2.60
2018-01-16T20:07:07.351Z,2.07
2018-01-16T20:09:34.898Z,2.70
2018-01-16T20:12:02.435Z,2.30
2018-01-16T20:14:29.986Z,3.33
2018-01-16T20:16:57.528Z,2.60
2018-01-16T20:19:25.117Z,2.20
2018-01-16T20:21:52.714Z,2.80
2018-01-16T20:24:20.271Z,2.80
2018-01-16T20:26:48.134Z,3.80
2018-01-16T20:29:15.732Z,2.30
2018-01-16T20:31:43.282Z,2.43
2018-01-16T20:34:10.821Z,4.13
2018-01-16T20:36:38.348Z,3.60
2018-01-16T20:39:05.916Z,3.57
2018-01-16T20:41:33.501Z,3.63
2018-01-16T20:44:01.018Z,2.47
2018-01-16T20:46:28.784Z,2.77
2018-01-16T20:48:56.336Z,2.67
2018-01-16T20:51:23.888Z,2.53
2018-01-16T20:53:51.444Z,3.50
2018-01-16T20:56:19.054Z,6.37
2018-01-16T20:58:46.636Z,2.50
2018-01-16T21:01:14.909Z,2.77
2018-01-16T21:03:42.490Z,2.10
2018-01-16T21:06:10.811Z,2.60
2018-01-16T21:08:38.392Z,2.50
2018-01-16T21:11:05.962Z,5.73
2018-01-16T21:13:33.489Z,2.83
2018-01-16T21:16:01.062Z,2.90
2018-01-16T21:18:28.616Z,1.97
2018-01-16T21:20:56.195Z,3.63
2018-01-16T21:23:23.769Z,3.10
2018-01-16T21:25:51.358Z,2.40
2018-01-16T21:28:18.901Z,2.40
2018-01-16T21:30:47.265Z,2.10
2018-01-16T21:33:14.849Z,2.87
2018-01-16T21:35:42.388Z,2.93
2018-01-16T21:38:09.947Z,3.40
2018-01-16T21:40:38.248Z,3.10
2018-01-16T21:43:05.763Z,3.60
2018-01-16T21:45:33.337Z,4.60
2018-01-16T21:48:00.905Z,4.43
2018-01-16T21:50:28.540Z,3.90
2018-01-16T21:52:56.128Z,4.30
2018-01-16T21:55:23.735Z,5.63
2018-01-16T21:57:51.289Z,4.77
2018-01-16T22:00:18.869Z,4.70
2018-01-16T22:02:46.408Z,3.93
2018-01-16T22:05:13.925Z,3.73
2018-01-16T22:07:41.548Z,3.77
2018-01-16T22:10:09.091Z,3.43
2018-01-16T22:12:36.602Z,4.30
2018-01-16T22:15:04.154Z,3.67
2018-01-16T22:17:31.681Z,3.93
2018-01-16T22:19:59.220Z,4.73
2018-01-16T22:22:27.500Z,3.37
2018-01-16T22:24:55.040Z,3.40
2018-01-16T22:27:22.560Z,3.80
2018-01-16T22:29:50.099Z,3.23
2018-01-16T22:32:17.656Z,4.37
2018-01-16T22:34:45.188Z,3.70
2018-01-16T22:37:12.757Z,3.40
2018-01-16T22:39:40.282Z,4.30
2018-01-16T22:42:07.787Z,4.57
2018-01-16T22:44:35.348Z,4.53
2018-01-16T22:47:02.874Z,4.27
2018-01-16T22:49:30.446Z,4.63
2018-01-16T22:51:58.031Z,5.07
2018-01-16T22:54:25.565Z,4.30
2018-01-16T22:56:53.077Z,4.00
2018-01-16T22:59:20.645Z,4.47
2018-01-16T23:01:48.158Z,3.53
2018-01-16T23:04:15.673Z,3.67
2018-01-16T23:06:43.235Z,3.30
2018-01-16T23:09:10.745Z,3.60
2018-01-16T23:11:38.251Z,3.80
2018-01-16T23:14:06.576Z,3.07
2018-01-16T23:16:34.090Z,3.63
2018-01-16T23:19:02.364Z,3.90
2018-01-16T23:21:29.928Z,3.63
2018-01-16T23:23:58.308Z,3.20
2018-01-16T23:26:26.592Z,3.70
2018-01-16T23:28:54.104Z,3.47
2018-01-16T23:31:21.660Z,3.50
2018-01-16T23:33:49.603Z,3.13
2018-01-16T23:36:17.141Z,3.90
2018-01-16T23:38:44.691Z,3.57
2018-01-16T23:41:12.202Z,4.07
2018-01-16T23:43:39.801Z,3.53
2018-01-16T23:46:08.088Z,2.90
2018-01-16T23:48:35.648Z,3.27
2018-01-16T23:51:03.923Z,2.53
2018-01-16T23:53:32.220Z,3.03
2018-01-16T23:55:59.767Z,3.00
2018-01-16T23:58:27.290Z,2.33
